Aeroporto :
LOGIN :

Iscrizione | Disclaimer

   EN    FR    IT 

 










Sommario :    VFR   VFR Marginale   IFR   IFR Intensivo   IFR Molto Intensivo
Visibilità : 
Base nubi : 
>= 8 km
>= 3000ft
5 / 8 km
1000 / 3000 ft
1500m / 5 km
500 / 1000 ft
800 / 1500m
200 / 500 ft
< 800m
< 200 ft
Simboli :   Temporali  Nebbia  Neve Forte  Precipitazioni Forti  Vento > 20 kt
SIGMETs :   Varie  Temporali  Ghiacco  Turbolenza  Onda orograficha  Ceneri Vulcaniche







- Altitudine del aeroporto : 1363 ft


ETIC - Grafenwohr Army Air Field

ULTIMO METAR :
  • 232156Z AUTO 00000KT 9999 CLR 06/04 A3031 RMK AO2 SLP271 T00570040 FZRANO $

METARs OBSOLETI :
  • 232056Z AUTO 30004KT 9999 CLR 09/07 A3030 RMK AO2 SLP267 T00900068 52010 FZRANO $

TAF AMD TAF ETIC
Valido dal 23 a 12 ore il 24 a 13 ore UTC


231240Z 2312/2413 VRB06KT 9999 SKC QNH3032INS
BECMG 2315/2316 VRB06KT 9999 SCT030 QNH3030INS
BECMG 2401/2402 VRB06KT 9999 OVC015 QNH3027INS TX16/2314Z TN04/2405Z LAST NO AMDS AFT 2313 NEXT 2504
Nessun NOTAM noto per questo aeroporto.



MetMap, La meteo Aeronautica in un colpo d'occhio ! - Copyright ORBIFLY Dicembre 2007 - Disclaimer

ORBIFLY MET'MAP TEAM :

Programmazione e sviluppo : Alexandra Zaïnal
Concezione e sviluppo : Baudouin d'Aumeries
Co-Programmazione e sviluppo : Marc-Olivier Méhu
Supporto tecnico e logistico : Manuel Goepfert
Aiuto per la traduzione : Arnaldo La Scala

Contatto : metmap@orbifly.com




FONTI E CREDITI :

   NOAA